sensor_id;sensor_type;location;lat;lon;timestamp;pressure;altitude;pressure_sealevel;temperature;humidity
11077;BME280;5591;42.626;23.380;2023-07-28T00:01:41;94301.97;;;16.86;95.75
11077;BME280;5591;42.626;23.380;2023-07-28T00:04:09;94201.72;;;16.18;95.28
11077;BME280;5591;42.626;23.380;2023-07-28T00:06:36;94306.13;;;16.64;95.83
11077;BME280;5591;42.626;23.380;2023-07-28T00:09:03;94294.19;;;16.73;96.29
11077;BME280;5591;42.626;23.380;2023-07-28T00:11:30;94301.84;;;16.81;96.14
11077;BME280;5591;42.626;23.380;2023-07-28T00:13:56;94300.53;;;16.72;95.13
11077;BME280;5591;42.626;23.380;2023-07-28T00:16:23;94298.25;;;16.76;94.99
11077;BME280;5591;42.626;23.380;2023-07-28T00:18:50;94299.50;;;16.73;94.69
11077;BME280;5591;42.626;23.380;2023-07-28T00:21:18;94294.75;;;16.64;93.82
11077;BME280;5591;42.626;23.380;2023-07-28T00:23:45;94295.03;;;16.74;92.58
11077;BME280;5591;42.626;23.380;2023-07-28T00:26:12;94295.91;;;16.68;92.62
11077;BME280;5591;42.626;23.380;2023-07-28T00:28:39;94291.56;;;16.55;92.97
11077;BME280;5591;42.626;23.380;2023-07-28T00:31:05;94290.97;;;16.53;93.27
11077;BME280;5591;42.626;23.380;2023-07-28T00:33:32;94299.38;;;16.50;93.33
11077;BME280;5591;42.626;23.380;2023-07-28T00:35:59;94290.97;;;16.35;94.98
11077;BME280;5591;42.626;23.380;2023-07-28T00:38:27;94284.94;;;16.28;96.12
11077;BME280;5591;42.626;23.380;2023-07-28T00:40:54;94297.22;;;16.23;96.37
11077;BME280;5591;42.626;23.380;2023-07-28T00:43:21;94297.03;;;16.24;95.58
11077;BME280;5591;42.626;23.380;2023-07-28T00:45:48;94284.28;;;16.15;96.63
11077;BME280;5591;42.626;23.380;2023-07-28T00:48:15;94299.59;;;16.31;96.67
11077;BME280;5591;42.626;23.380;2023-07-28T00:50:45;94296.06;;;16.19;97.78
11077;BME280;5591;42.626;23.380;2023-07-28T00:53:12;94291.84;;;16.11;97.35
11077;BME280;5591;42.626;23.380;2023-07-28T00:55:41;94278.13;;;15.78;96.60
11077;BME280;5591;42.626;23.380;2023-07-28T00:58:08;94294.31;;;15.88;97.74
11077;BME280;5591;42.626;23.380;2023-07-28T01:00:36;94297.63;;;15.84;98.40
11077;BME280;5591;42.626;23.380;2023-07-28T01:03:03;94289.47;;;15.85;98.51
11077;BME280;5591;42.626;23.380;2023-07-28T01:05:38;94299.94;;;15.74;99.34
11077;BME280;5591;42.626;23.380;2023-07-28T01:08:12;94301.16;;;15.78;100.00
11077;BME280;5591;42.626;23.380;2023-07-28T01:10:44;94298.34;;;15.73;100.00
11077;BME280;5591;42.626;23.380;2023-07-28T01:13:11;94300.56;;;15.51;100.00
11077;BME280;5591;42.626;23.380;2023-07-28T01:15:38;94301.81;;;15.49;100.00
11077;BME280;5591;42.626;23.380;2023-07-28T01:18:05;94294.72;;;15.43;100.00
11077;BME280;5591;42.626;23.380;2023-07-28T01:20:33;94285.47;;;15.34;100.00
11077;BME280;5591;42.626;23.380;2023-07-28T01:23:16;94293.97;;;15.36;100.00
11077;BME280;5591;42.626;23.380;2023-07-28T01:25:57;94290.13;;;15.32;100.00
11077;BME280;5591;42.626;23.380;2023-07-28T01:28:28;94186.47;;;14.68;100.00
11077;BME280;5591;42.626;23.380;2023-07-28T01:30:56;94286.50;;;15.33;100.00
11077;BME280;5591;42.626;23.380;2023-07-28T01:33:23;94299.47;;;15.34;100.00
11077;BME280;5591;42.626;23.380;2023-07-28T01:35:50;94289.63;;;15.17;100.00
11077;BME280;5591;42.626;23.380;2023-07-28T01:38:16;94298.19;;;15.12;100.00
11077;BME280;5591;42.626;23.380;2023-07-28T01:40:43;94294.66;;;15.25;100.00
11077;BME280;5591;42.626;23.380;2023-07-28T01:43:10;94296.50;;;15.18;100.00
11077;BME280;5591;42.626;23.380;2023-07-28T01:45:38;94289.13;;;14.95;100.00
11077;BME280;5591;42.626;23.380;2023-07-28T01:48:05;94283.84;;;14.95;100.00
11077;BME280;5591;42.626;23.380;2023-07-28T01:50:33;94279.72;;;14.75;100.00
11077;BME280;5591;42.626;23.380;2023-07-28T01:53:00;94281.72;;;14.80;100.00
11077;BME280;5591;42.626;23.380;2023-07-28T01:55:27;94193.63;;;14.30;100.00
11077;BME280;5591;42.626;23.380;2023-07-28T01:57:55;94294.91;;;14.86;100.00
11077;BME280;5591;42.626;23.380;2023-07-28T02:00:23;94291.50;;;14.73;100.00
11077;BME280;5591;42.626;23.380;2023-07-28T02:02:52;94312.00;;;14.77;100.00
11077;BME280;5591;42.626;23.380;2023-07-28T02:05:19;94301.28;;;14.72;100.00
11077;BME280;5591;42.626;23.380;2023-07-28T02:07:46;94294.03;;;14.61;100.00
11077;BME280;5591;42.626;23.380;2023-07-28T02:10:13;94292.38;;;14.67;100.00
11077;BME280;5591;42.626;23.380;2023-07-28T02:12:40;94275.31;;;14.63;100.00
11077;BME280;5591;42.626;23.380;2023-07-28T02:15:07;94274.13;;;14.59;100.00
11077;BME280;5591;42.626;23.380;2023-07-28T02:17:35;94301.47;;;14.71;100.00
11077;BME280;5591;42.626;23.380;2023-07-28T02:20:03;94284.16;;;14.81;100.00
11077;BME280;5591;42.626;23.380;2023-07-28T02:22:30;94297.94;;;14.90;100.00
11077;BME280;5591;42.626;23.380;2023-07-28T02:24:57;94304.84;;;14.91;100.00
11077;BME280;5591;42.626;23.380;2023-07-28T02:27:27;94301.38;;;14.90;100.00
11077;BME280;5591;42.626;23.380;2023-07-28T02:29:54;94292.28;;;14.80;100.00
11077;BME280;5591;42.626;23.380;2023-07-28T02:32:21;94299.16;;;14.87;100.00
11077;BME280;5591;42.626;23.380;2023-07-28T02:34:48;94299.75;;;14.89;100.00
11077;BME280;5591;42.626;23.380;2023-07-28T02:37:16;94300.78;;;14.88;100.00
11077;BME280;5591;42.626;23.380;2023-07-28T02:39:43;94292.44;;;14.91;100.00
11077;BME280;5591;42.626;23.380;2023-07-28T02:42:11;94304.00;;;14.90;100.00
11077;BME280;5591;42.626;23.380;2023-07-28T02:44:38;94306.06;;;14.88;100.00
11077;BME280;5591;42.626;23.380;2023-07-28T02:47:05;94301.44;;;14.77;100.00
11077;BME280;5591;42.626;23.380;2023-07-28T02:49:32;94306.50;;;14.85;100.00
11077;BME280;5591;42.626;23.380;2023-07-28T02:51:59;94305.66;;;14.91;100.00
11077;BME280;5591;42.626;23.380;2023-07-28T02:54:27;94300.53;;;14.96;100.00
11077;BME280;5591;42.626;23.380;2023-07-28T02:56:54;94300.72;;;15.01;100.00
11077;BME280;5591;42.626;23.380;2023-07-28T02:59:21;94289.53;;;14.99;100.00
11077;BME280;5591;42.626;23.380;2023-07-28T03:01:49;94302.75;;;14.99;100.00
11077;BME280;5591;42.626;23.380;2023-07-28T03:04:17;94264.72;;;14.69;100.00
11077;BME280;5591;42.626;23.380;2023-07-28T03:06:45;94291.50;;;14.73;100.00
11077;BME280;5591;42.626;23.380;2023-07-28T03:09:12;94303.72;;;14.67;100.00
11077;BME280;5591;42.626;23.380;2023-07-28T03:11:41;94300.69;;;14.70;100.00
11077;BME280;5591;42.626;23.380;2023-07-28T03:14:07;94301.03;;;14.80;100.00
11077;BME280;5591;42.626;23.380;2023-07-28T03:16:34;94305.47;;;14.86;100.00
11077;BME280;5591;42.626;23.380;2023-07-28T03:19:01;94297.94;;;14.90;100.00
11077;BME280;5591;42.626;23.380;2023-07-28T03:21:29;94309.09;;;14.92;100.00
11077;BME280;5591;42.626;23.380;2023-07-28T03:23:56;94304.25;;;14.89;100.00
11077;BME280;5591;42.626;23.380;2023-07-28T03:26:23;94307.91;;;14.88;100.00
11077;BME280;5591;42.626;23.380;2023-07-28T03:28:51;94315.56;;;14.95;100.00
11077;BME280;5591;42.626;23.380;2023-07-28T03:31:18;94318.25;;;15.20;100.00
11077;BME280;5591;42.626;23.380;2023-07-28T03:33:44;94311.53;;;15.24;100.00
11077;BME280;5591;42.626;23.380;2023-07-28T03:36:11;94319.69;;;15.22;100.00
11077;BME280;5591;42.626;23.380;2023-07-28T03:38:39;94318.22;;;15.26;100.00
11077;BME280;5591;42.626;23.380;2023-07-28T03:41:05;94313.94;;;15.32;100.00
11077;BME280;5591;42.626;23.380;2023-07-28T03:43:32;94313.84;;;15.45;100.00
11077;BME280;5591;42.626;23.380;2023-07-28T03:46:01;94319.22;;;15.32;100.00
11077;BME280;5591;42.626;23.380;2023-07-28T03:48:27;94325.28;;;15.39;100.00
11077;BME280;5591;42.626;23.380;2023-07-28T03:50:54;94319.81;;;15.27;100.00
11077;BME280;5591;42.626;23.380;2023-07-28T03:53:21;94311.69;;;15.29;100.00
11077;BME280;5591;42.626;23.380;2023-07-28T03:55:48;94316.97;;;15.35;100.00
11077;BME280;5591;42.626;23.380;2023-07-28T03:58:14;94311.81;;;15.47;100.00
11077;BME280;5591;42.626;23.380;2023-07-28T04:00:41;94317.03;;;15.53;100.00
11077;BME280;5591;42.626;23.380;2023-07-28T04:03:09;94315.47;;;15.46;100.00
11077;BME280;5591;42.626;23.380;2023-07-28T04:05:36;94319.69;;;15.53;100.00
11077;BME280;5591;42.626;23.380;2023-07-28T04:08:04;94321.78;;;15.69;100.00
11077;BME280;5591;42.626;23.380;2023-07-28T04:10:31;94326.59;;;15.79;100.00
11077;BME280;5591;42.626;23.380;2023-07-28T04:12:58;94328.22;;;15.80;100.00
11077;BME280;5591;42.626;23.380;2023-07-28T04:15:24;94334.16;;;15.75;100.00
11077;BME280;5591;42.626;23.380;2023-07-28T04:17:51;94332.72;;;15.97;100.00
11077;BME280;5591;42.626;23.380;2023-07-28T04:20:19;94335.81;;;16.12;100.00
11077;BME280;5591;42.626;23.380;2023-07-28T04:22:46;94323.84;;;16.28;100.00
11077;BME280;5591;42.626;23.380;2023-07-28T04:25:13;94333.31;;;16.42;100.00
11077;BME280;5591;42.626;23.380;2023-07-28T04:27:40;94326.75;;;16.62;100.00
11077;BME280;5591;42.626;23.380;2023-07-28T04:30:07;94327.63;;;16.74;100.00
11077;BME280;5591;42.626;23.380;2023-07-28T04:32:34;94333.28;;;16.96;100.00
11077;BME280;5591;42.626;23.380;2023-07-28T04:35:00;94322.09;;;16.94;100.00
11077;BME280;5591;42.626;23.380;2023-07-28T04:37:29;94329.75;;;17.13;100.00
11077;BME280;5591;42.626;23.380;2023-07-28T04:39:55;94326.25;;;17.31;100.00
11077;BME280;5591;42.626;23.380;2023-07-28T04:42:22;94324.91;;;17.40;100.00
11077;BME280;5591;42.626;23.380;2023-07-28T04:44:49;94325.66;;;17.58;100.00
11077;BME280;5591;42.626;23.380;2023-07-28T04:47:16;94323.34;;;17.62;100.00
11077;BME280;5591;42.626;23.380;2023-07-28T04:49:43;94325.09;;;17.79;99.64
11077;BME280;5591;42.626;23.380;2023-07-28T04:52:11;94325.09;;;17.79;100.00
11077;BME280;5591;42.626;23.380;2023-07-28T04:54:39;94329.97;;;17.93;99.16
11077;BME280;5591;42.626;23.380;2023-07-28T04:57:06;94318.19;;;17.89;98.67
11077;BME280;5591;42.626;23.380;2023-07-28T04:59:33;94325.94;;;18.02;98.92
11077;BME280;5591;42.626;23.380;2023-07-28T05:02:00;94318.19;;;18.12;98.21
11077;BME280;5591;42.626;23.380;2023-07-28T05:04:26;94233.56;;;17.70;98.42
11077;BME280;5591;42.626;23.380;2023-07-28T05:06:53;94319.81;;;18.36;97.33
11077;BME280;5591;42.626;23.380;2023-07-28T05:09:20;94323.50;;;18.12;97.97
11077;BME280;5591;42.626;23.380;2023-07-28T05:11:48;94322.91;;;18.45;96.70
11077;BME280;5591;42.626;23.380;2023-07-28T05:14:15;94329.16;;;18.50;95.20
11077;BME280;5591;42.626;23.380;2023-07-28T05:16:42;94325.78;;;18.66;94.88
11077;BME280;5591;42.626;23.380;2023-07-28T05:19:09;94328.56;;;18.60;94.32
11077;BME280;5591;42.626;23.380;2023-07-28T05:21:35;94327.91;;;18.30;95.69
11077;BME280;5591;42.626;23.380;2023-07-28T05:24:02;94301.66;;;18.22;94.75
11077;BME280;5591;42.626;23.380;2023-07-28T05:26:29;94338.03;;;18.56;92.23
11077;BME280;5591;42.626;23.380;2023-07-28T05:28:57;94324.34;;;18.87;90.95
11077;BME280;5591;42.626;23.380;2023-07-28T05:31:24;94322.84;;;18.91;91.13
11077;BME280;5591;42.626;23.380;2023-07-28T05:33:51;94326.47;;;19.01;90.27
11077;BME280;5591;42.626;23.380;2023-07-28T05:36:19;94330.47;;;18.87;90.32
11077;BME280;5591;42.626;23.380;2023-07-28T05:38:46;94325.56;;;18.56;90.35
11077;BME280;5591;42.626;23.380;2023-07-28T05:41:12;94326.84;;;18.93;88.56
11077;BME280;5591;42.626;23.380;2023-07-28T05:43:39;94320.09;;;19.14;88.05
11077;BME280;5591;42.626;23.380;2023-07-28T05:46:07;94312.56;;;18.71;88.59
11077;BME280;5591;42.626;23.380;2023-07-28T05:48:34;94321.66;;;18.98;87.46
11077;BME280;5591;42.626;23.380;2023-07-28T05:51:01;94312.88;;;19.26;84.99
11077;BME280;5591;42.626;23.380;2023-07-28T05:53:28;94288.06;;;19.37;82.64
11077;BME280;5591;42.626;23.380;2023-07-28T05:55:55;94313.16;;;19.57;81.81
11077;BME280;5591;42.626;23.380;2023-07-28T05:58:22;94269.13;;;19.50;80.90
11077;BME280;5591;42.626;23.380;2023-07-28T06:00:49;94312.75;;;19.49;83.20
11077;BME280;5591;42.626;23.380;2023-07-28T06:03:17;94303.50;;;19.68;82.70
11077;BME280;5591;42.626;23.380;2023-07-28T06:05:44;94308.75;;;19.96;81.34
11077;BME280;5591;42.626;23.380;2023-07-28T06:08:10;94311.34;;;20.07;81.97
11077;BME280;5591;42.626;23.380;2023-07-28T06:10:37;94299.47;;;20.15;82.03
11077;BME280;5591;42.626;23.380;2023-07-28T06:13:04;94295.50;;;20.17;81.93
11077;BME280;5591;42.626;23.380;2023-07-28T06:15:31;94308.94;;;20.06;82.40
11077;BME280;5591;42.626;23.380;2023-07-28T06:18:00;94298.91;;;20.13;83.59
11077;BME280;5591;42.626;23.380;2023-07-28T06:20:29;94305.41;;;20.38;82.93
11077;BME280;5591;42.626;23.380;2023-07-28T06:22:56;94299.13;;;20.65;81.15
11077;BME280;5591;42.626;23.380;2023-07-28T06:25:22;94298.97;;;20.55;83.29
11077;BME280;5591;42.626;23.380;2023-07-28T06:27:49;94293.34;;;20.73;83.77
11077;BME280;5591;42.626;23.380;2023-07-28T06:30:16;94300.03;;;20.17;87.14
11077;BME280;5591;42.626;23.380;2023-07-28T06:32:43;94294.88;;;20.48;84.68
11077;BME280;5591;42.626;23.380;2023-07-28T06:35:10;94293.47;;;20.62;84.40
11077;BME280;5591;42.626;23.380;2023-07-28T06:37:38;94239.06;;;20.63;84.22
11077;BME280;5591;42.626;23.380;2023-07-28T06:40:06;94292.06;;;21.19;81.19
11077;BME280;5591;42.626;23.380;2023-07-28T06:42:35;94290.56;;;21.06;79.73
11077;BME280;5591;42.626;23.380;2023-07-28T06:45:02;94279.66;;;21.08;79.20
11077;BME280;5591;42.626;23.380;2023-07-28T06:47:29;94293.16;;;21.23;76.78
11077;BME280;5591;42.626;23.380;2023-07-28T06:49:56;94299.22;;;21.40;76.46
11077;BME280;5591;42.626;23.380;2023-07-28T06:52:23;94302.88;;;21.60;75.64
11077;BME280;5591;42.626;23.380;2023-07-28T06:54:51;94300.56;;;21.69;74.99
11077;BME280;5591;42.626;23.380;2023-07-28T06:57:20;94291.50;;;21.70;74.99
11077;BME280;5591;42.626;23.380;2023-07-28T06:59:47;94303.59;;;21.77;74.40
11077;BME280;5591;42.626;23.380;2023-07-28T07:02:13;94298.66;;;21.96;72.89
11077;BME280;5591;42.626;23.380;2023-07-28T07:04:41;94294.84;;;21.60;74.43
11077;BME280;5591;42.626;23.380;2023-07-28T07:07:08;94297.75;;;21.85;73.41
11077;BME280;5591;42.626;23.380;2023-07-28T07:09:35;94242.78;;;21.63;72.11
11077;BME280;5591;42.626;23.380;2023-07-28T07:12:03;94299.88;;;21.78;71.71
11077;BME280;5591;42.626;23.380;2023-07-28T07:14:31;94294.59;;;21.88;71.86
11077;BME280;5591;42.626;23.380;2023-07-28T07:16:59;94297.78;;;22.22;69.42
11077;BME280;5591;42.626;23.380;2023-07-28T07:19:27;94235.06;;;21.66;70.08
11077;BME280;5591;42.626;23.380;2023-07-28T07:21:54;94293.47;;;22.16;70.97
11077;BME280;5591;42.626;23.380;2023-07-28T07:24:21;94290.22;;;22.09;73.00
11077;BME280;5591;42.626;23.380;2023-07-28T07:26:48;94289.75;;;22.58;72.76
11077;BME280;5591;42.626;23.380;2023-07-28T07:29:17;94297.81;;;22.63;70.02
11077;BME280;5591;42.626;23.380;2023-07-28T07:31:44;94291.25;;;22.91;69.74
11077;BME280;5591;42.626;23.380;2023-07-28T07:34:11;94297.78;;;22.58;68.53
11077;BME280;5591;42.626;23.380;2023-07-28T07:36:38;94292.44;;;23.14;68.08
11077;BME280;5591;42.626;23.380;2023-07-28T07:39:05;94297.03;;;23.29;64.62
11077;BME280;5591;42.626;23.380;2023-07-28T07:41:33;94296.56;;;22.81;66.09
11077;BME280;5591;42.626;23.380;2023-07-28T07:43:59;94295.22;;;22.37;70.09
11077;BME280;5591;42.626;23.380;2023-07-28T07:46:28;94302.50;;;22.93;67.04
11077;BME280;5591;42.626;23.380;2023-07-28T07:48:54;94305.75;;;23.00;66.55
11077;BME280;5591;42.626;23.380;2023-07-28T07:51:21;94306.06;;;23.13;65.59
11077;BME280;5591;42.626;23.380;2023-07-28T07:53:48;94302.16;;;22.79;65.53
11077;BME280;5591;42.626;23.380;2023-07-28T07:56:15;94309.50;;;23.03;64.62
11077;BME280;5591;42.626;23.380;2023-07-28T07:58:42;94323.88;;;22.88;66.30
11077;BME280;5591;42.626;23.380;2023-07-28T08:01:09;94304.03;;;23.45;64.03
11077;BME280;5591;42.626;23.380;2023-07-28T08:03:37;94233.38;;;22.28;64.78
11077;BME280;5591;42.626;23.380;2023-07-28T08:06:04;94314.34;;;23.11;64.07
11077;BME280;5591;42.626;23.380;2023-07-28T08:08:31;94309.22;;;23.00;63.42
11077;BME280;5591;42.626;23.380;2023-07-28T08:10:58;94315.56;;;23.45;63.90
11077;BME280;5591;42.626;23.380;2023-07-28T08:13:25;94295.22;;;23.54;62.41
11077;BME280;5591;42.626;23.380;2023-07-28T08:15:54;94303.06;;;24.01;60.37
11077;BME280;5591;42.626;23.380;2023-07-28T08:18:21;94305.19;;;23.99;60.41
11077;BME280;5591;42.626;23.380;2023-07-28T08:20:49;94294.47;;;24.14;58.76
11077;BME280;5591;42.626;23.380;2023-07-28T08:23:16;94299.81;;;24.39;56.19
11077;BME280;5591;42.626;23.380;2023-07-28T08:25:43;94290.41;;;24.51;55.06
11077;BME280;5591;42.626;23.380;2023-07-28T08:28:10;94297.13;;;24.39;58.83
11077;BME280;5591;42.626;23.380;2023-07-28T08:30:36;94293.09;;;24.56;56.11
11077;BME280;5591;42.626;23.380;2023-07-28T08:33:03;94298.69;;;23.65;58.91
11077;BME280;5591;42.626;23.380;2023-07-28T08:35:30;94295.28;;;23.89;59.29
11077;BME280;5591;42.626;23.380;2023-07-28T08:37:58;94293.38;;;24.00;59.51
11077;BME280;5591;42.626;23.380;2023-07-28T08:40:26;94293.59;;;24.73;56.31
11077;BME280;5591;42.626;23.380;2023-07-28T08:42:53;94294.38;;;24.74;56.42
11077;BME280;5591;42.626;23.380;2023-07-28T08:45:20;94286.78;;;24.96;54.79
11077;BME280;5591;42.626;23.380;2023-07-28T08:47:50;94290.19;;;25.11;55.18
11077;BME280;5591;42.626;23.380;2023-07-28T08:50:17;94278.53;;;24.82;54.04
11077;BME280;5591;42.626;23.380;2023-07-28T08:52:43;94288.13;;;25.03;54.72
11077;BME280;5591;42.626;23.380;2023-07-28T08:55:12;94285.84;;;25.35;53.33
11077;BME280;5591;42.626;23.380;2023-07-28T08:57:40;94290.78;;;25.62;51.18
11077;BME280;5591;42.626;23.380;2023-07-28T09:00:08;94279.34;;;25.84;50.89
11077;BME280;5591;42.626;23.380;2023-07-28T09:02:38;94239.34;;;25.73;49.28
11077;BME280;5591;42.626;23.380;2023-07-28T09:05:06;94259.09;;;25.54;50.40
11077;BME280;5591;42.626;23.380;2023-07-28T09:07:36;94270.25;;;25.76;51.05
11077;BME280;5591;42.626;23.380;2023-07-28T09:10:03;94255.84;;;25.62;50.54
11077;BME280;5591;42.626;23.380;2023-07-28T09:12:32;94260.91;;;25.63;51.32
11077;BME280;5591;42.626;23.380;2023-07-28T09:14:59;94262.75;;;25.73;50.59
11077;BME280;5591;42.626;23.380;2023-07-28T09:17:26;94293.06;;;25.83;48.44
11077;BME280;5591;42.626;23.380;2023-07-28T09:19:54;94256.41;;;25.00;49.53
11077;BME280;5591;42.626;23.380;2023-07-28T09:22:22;94232.22;;;25.05;49.14
11077;BME280;5591;42.626;23.380;2023-07-28T09:24:49;94236.06;;;25.38;49.49
11077;BME280;5591;42.626;23.380;2023-07-28T09:27:20;94238.06;;;24.54;52.31
11077;BME280;5591;42.626;23.380;2023-07-28T09:29:51;94233.09;;;24.91;51.20
11077;BME280;5591;42.626;23.380;2023-07-28T09:32:26;94253.09;;;24.65;51.31
11077;BME280;5591;42.626;23.380;2023-07-28T09:35:08;94225.16;;;25.24;50.13
11077;BME280;5591;42.626;23.380;2023-07-28T09:37:40;94217.78;;;25.78;49.76
11077;BME280;5591;42.626;23.380;2023-07-28T09:40:09;94218.06;;;26.10;48.43
11077;BME280;5591;42.626;23.380;2023-07-28T09:42:37;94211.28;;;26.69;46.16
11077;BME280;5591;42.626;23.380;2023-07-28T09:45:07;94211.78;;;26.95;44.78
11077;BME280;5591;42.626;23.380;2023-07-28T09:47:36;94202.97;;;27.08;43.79
11077;BME280;5591;42.626;23.380;2023-07-28T09:50:05;94197.75;;;27.35;43.47
11077;BME280;5591;42.626;23.380;2023-07-28T09:52:35;94198.06;;;27.52;43.64
11077;BME280;5591;42.626;23.380;2023-07-28T09:55:06;94199.88;;;27.75;42.79
11077;BME280;5591;42.626;23.380;2023-07-28T09:57:37;94199.59;;;27.76;42.09
11077;BME280;5591;42.626;23.380;2023-07-28T10:00:08;94204.78;;;28.05;42.33
11077;BME280;5591;42.626;23.380;2023-07-28T10:02:37;94200.69;;;28.07;42.13
11077;BME280;5591;42.626;23.380;2023-07-28T10:05:06;94193.69;;;28.06;40.71
11077;BME280;5591;42.626;23.380;2023-07-28T10:07:34;94193.13;;;28.23;41.29
11077;BME280;5591;42.626;23.380;2023-07-28T10:10:03;94178.72;;;28.27;40.43
11077;BME280;5591;42.626;23.380;2023-07-28T10:12:40;94185.31;;;27.39;41.10
11077;BME280;5591;42.626;23.380;2023-07-28T10:15:12;94184.59;;;27.33;42.78
11077;BME280;5591;42.626;23.380;2023-07-28T10:17:43;94184.13;;;27.63;42.53
11077;BME280;5591;42.626;23.380;2023-07-28T10:20:29;94191.25;;;27.73;41.86
11077;BME280;5591;42.626;23.380;2023-07-28T10:23:04;94181.50;;;28.22;41.29
11077;BME280;5591;42.626;23.380;2023-07-28T10:25:33;94181.22;;;27.23;42.49
11077;BME280;5591;42.626;23.380;2023-07-28T10:28:01;94188.69;;;27.07;42.98
11077;BME280;5591;42.626;23.380;2023-07-28T10:30:35;94203.75;;;26.43;44.24
11077;BME280;5591;42.626;23.380;2023-07-28T10:33:03;94182.66;;;26.50;44.22
11077;BME280;5591;42.626;23.380;2023-07-28T10:35:30;94173.47;;;26.98;42.94
11077;BME280;5591;42.626;23.380;2023-07-28T10:38:29;94169.03;;;27.44;42.49
11077;BME280;5591;42.626;23.380;2023-07-28T10:41:11;94165.47;;;27.99;42.17
11077;BME280;5591;42.626;23.380;2023-07-28T10:43:38;94157.50;;;28.21;40.02
11077;BME280;5591;42.626;23.380;2023-07-28T10:46:08;94174.03;;;27.37;41.30
11077;BME280;5591;42.626;23.380;2023-07-28T10:48:36;94160.13;;;27.06;42.23
11077;BME280;5591;42.626;23.380;2023-07-28T10:51:03;94153.84;;;27.16;42.39
11077;BME280;5591;42.626;23.380;2023-07-28T10:53:31;94151.59;;;27.55;41.33
11077;BME280;5591;42.626;23.380;2023-07-28T10:55:58;94150.66;;;27.64;40.82
11077;BME280;5591;42.626;23.380;2023-07-28T10:58:25;94146.56;;;28.44;40.19
11077;BME280;5591;42.626;23.380;2023-07-28T11:00:52;94138.91;;;29.13;37.89
11077;BME280;5591;42.626;23.380;2023-07-28T11:03:22;94138.97;;;29.22;38.64
11077;BME280;5591;42.626;23.380;2023-07-28T11:05:50;94107.56;;;29.34;38.35
11077;BME280;5591;42.626;23.380;2023-07-28T11:08:17;94060.91;;;29.07;37.80
11077;BME280;5591;42.626;23.380;2023-07-28T11:10:44;94130.94;;;28.68;38.72
11077;BME280;5591;42.626;23.380;2023-07-28T11:13:11;94127.72;;;28.79;38.73
11077;BME280;5591;42.626;23.380;2023-07-28T11:15:38;94127.00;;;29.01;38.89
11077;BME280;5591;42.626;23.380;2023-07-28T11:18:05;94120.50;;;29.59;37.62
11077;BME280;5591;42.626;23.380;2023-07-28T11:20:33;94114.53;;;30.23;36.23
11077;BME280;5591;42.626;23.380;2023-07-28T11:23:01;94072.47;;;30.17;37.46
11077;BME280;5591;42.626;23.380;2023-07-28T11:25:29;94115.09;;;29.02;35.89
11077;BME280;5591;42.626;23.380;2023-07-28T11:27:57;94103.69;;;29.93;35.04
11077;BME280;5591;42.626;23.380;2023-07-28T11:30:24;94061.75;;;30.51;38.08
11077;BME280;5591;42.626;23.380;2023-07-28T11:32:52;94098.59;;;31.17;34.44
11077;BME280;5591;42.626;23.380;2023-07-28T11:35:21;94092.53;;;31.62;34.29
11077;BME280;5591;42.626;23.380;2023-07-28T11:37:52;94095.19;;;32.21;33.37
11077;BME280;5591;42.626;23.380;2023-07-28T11:40:20;94092.19;;;32.81;32.29
11077;BME280;5591;42.626;23.380;2023-07-28T11:42:49;94078.19;;;33.81;31.65
11077;BME280;5591;42.626;23.380;2023-07-28T11:45:18;94085.72;;;35.64;29.54
11077;BME280;5591;42.626;23.380;2023-07-28T11:47:58;94078.22;;;35.73;28.77
11077;BME280;5591;42.626;23.380;2023-07-28T11:50:26;94088.88;;;37.10;27.08
11077;BME280;5591;42.626;23.380;2023-07-28T11:52:55;94065.56;;;38.11;25.89
11077;BME280;5591;42.626;23.380;2023-07-28T11:55:23;94073.31;;;38.92;25.57
11077;BME280;5591;42.626;23.380;2023-07-28T11:57:51;94073.72;;;39.42;24.34
11077;BME280;5591;42.626;23.380;2023-07-28T12:00:18;94082.22;;;39.34;24.46
11077;BME280;5591;42.626;23.380;2023-07-28T12:03:00;94078.34;;;40.63;23.87
11077;BME280;5591;42.626;23.380;2023-07-28T12:05:27;94076.50;;;40.38;23.46
11077;BME280;5591;42.626;23.380;2023-07-28T12:07:55;94077.88;;;37.98;25.42
11077;BME280;5591;42.626;23.380;2023-07-28T12:10:22;94070.41;;;39.59;23.86
11077;BME280;5591;42.626;23.380;2023-07-28T12:12:49;94055.00;;;40.93;23.54
11077;BME280;5591;42.626;23.380;2023-07-28T12:15:24;94064.06;;;41.51;22.68
11077;BME280;5591;42.626;23.380;2023-07-28T12:18:08;94063.72;;;42.63;21.72
11077;BME280;5591;42.626;23.380;2023-07-28T12:20:36;94058.34;;;40.69;23.14
11077;BME280;5591;42.626;23.380;2023-07-28T12:23:05;94055.78;;;41.51;23.32
11077;BME280;5591;42.626;23.380;2023-07-28T12:25:32;94051.09;;;42.83;21.96
11077;BME280;5591;42.626;23.380;2023-07-28T12:27:59;94044.16;;;41.18;22.06
11077;BME280;5591;42.626;23.380;2023-07-28T12:30:26;94043.94;;;38.47;24.02
11077;BME280;5591;42.626;23.380;2023-07-28T12:32:53;94044.84;;;36.69;25.30
11077;BME280;5591;42.626;23.380;2023-07-28T12:35:20;94006.50;;;37.38;24.28
11077;BME280;5591;42.626;23.380;2023-07-28T12:37:49;94038.50;;;36.06;25.23
11077;BME280;5591;42.626;23.380;2023-07-28T12:40:17;94053.75;;;35.25;25.63
11077;BME280;5591;42.626;23.380;2023-07-28T12:42:45;94041.69;;;37.01;24.95
11077;BME280;5591;42.626;23.380;2023-07-28T12:45:12;94036.16;;;36.51;25.58
11077;BME280;5591;42.626;23.380;2023-07-28T12:47:40;94023.00;;;34.76;27.35
11077;BME280;5591;42.626;23.380;2023-07-28T12:50:09;94036.03;;;36.60;27.25
11077;BME280;5591;42.626;23.380;2023-07-28T12:52:36;94027.38;;;38.89;25.44
11077;BME280;5591;42.626;23.380;2023-07-28T12:55:03;94022.66;;;38.89;24.27
11077;BME280;5591;42.626;23.380;2023-07-28T12:57:32;94020.47;;;40.20;23.82
11077;BME280;5591;42.626;23.380;2023-07-28T12:59:59;94032.72;;;41.19;22.63
11077;BME280;5591;42.626;23.380;2023-07-28T13:02:26;94023.16;;;40.53;22.86